CheckWX is a tool to help pilots better visualize weather data.  It is not intended as a substitute for an official pre-flight weather briefing.

23:20:07 UTC

KMSL METAR
Northwest Alabama Regional Airport
Muscle Shoals, Alabama, USA
Current

13 mins ago

KMSL 262307Z AUTO 11006KT 10SM -RA FEW011 SCT017 OVC070 22/19 A2995 RMK AO2 P0000 T02170194
Observed
May-26 @ 23:07 UTC
Wind
  • 110° at 6 KTS
Visibility
Flight Rules
VFR
Conditions
Light Rain
Cloud Levels
  • Few at 1,100' AGL
  • Scattered at 1,700' AGL
  • Overcast at 7,000' AGL
Temperature
22°C / 72°F
Dewpoint
19°C / 66°F
Humidity
83%
Altimeter
29.95" Hg
Pressure
1014.22 hPa
Current Rain
0.01"
Previous

27 mins ago

KMSL 262253Z AUTO 11004KT 10SM -RA FEW011 BKN023 OVC065 22/19 A2995 RMK AO2 SLP137 P0004 T02170194
Observed
May-26 @ 22:53 UTC
Wind
  • 110° at 4 KTS
Visibility
Flight Rules
MVFR
Conditions
Light Rain
Cloud Levels
  • Few at 1,100' AGL
  • Broken at 2,300' AGL
  • Overcast at 6,500' AGL
Temperature
22°C / 72°F
Dewpoint
19°C / 66°F
Humidity
83%
Altimeter
29.95" Hg
Pressure
1014.22 hPa
Current Rain
0.04"
Previous

44 mins ago

KMSL 262236Z AUTO 11008KT 10SM -RA BKN023 BKN032 OVC060 21/19 A2995 RMK AO2 P0002 T02110194
Observed
May-26 @ 22:36 UTC
Wind
  • 110° at 8 KTS
Visibility
Flight Rules
MVFR
Conditions
Light Rain
Cloud Levels
  • Broken at 2,300' AGL
  • Broken at 3,200' AGL
  • Overcast at 6,000' AGL
Temperature
21°C / 70°F
Dewpoint
19°C / 66°F
Humidity
88%
Altimeter
29.95" Hg
Pressure
1014.22 hPa
Current Rain
0.02"